sensor_id;sensor_type;location;lat;lon;timestamp;P1;durP1;ratioP1;P2;durP2;ratioP2
5622;SDS011;2833;50.432;10.706;2024-01-25T00:00:23;17.80;;;3.90;;
5622;SDS011;2833;50.432;10.706;2024-01-25T00:02:48;11.50;;;3.10;;
5622;SDS011;2833;50.432;10.706;2024-01-25T00:05:13;13.40;;;3.20;;
5622;SDS011;2833;50.432;10.706;2024-01-25T00:07:45;16.07;;;3.47;;
5622;SDS011;2833;50.432;10.706;2024-01-25T00:10:10;17.73;;;3.73;;
5622;SDS011;2833;50.432;10.706;2024-01-25T00:12:35;17.77;;;3.53;;
5622;SDS011;2833;50.432;10.706;2024-01-25T00:15:00;19.27;;;3.30;;
5622;SDS011;2833;50.432;10.706;2024-01-25T00:17:25;20.00;;;4.50;;
5622;SDS011;2833;50.432;10.706;2024-01-25T00:19:51;8.80;;;2.90;;
5622;SDS011;2833;50.432;10.706;2024-01-25T00:22:16;23.37;;;3.70;;
5622;SDS011;2833;50.432;10.706;2024-01-25T00:24:41;13.67;;;2.50;;
5622;SDS011;2833;50.432;10.706;2024-01-25T00:27:06;18.87;;;3.17;;
5622;SDS011;2833;50.432;10.706;2024-01-25T00:29:31;23.27;;;3.50;;
5622;SDS011;2833;50.432;10.706;2024-01-25T00:31:58;10.43;;;3.00;;
5622;SDS011;2833;50.432;10.706;2024-01-25T00:34:24;12.77;;;3.47;;
5622;SDS011;2833;50.432;10.706;2024-01-25T00:36:50;15.00;;;3.10;;
5622;SDS011;2833;50.432;10.706;2024-01-25T00:39:15;13.70;;;3.20;;
5622;SDS011;2833;50.432;10.706;2024-01-25T00:41:40;17.50;;;3.20;;
5622;SDS011;2833;50.432;10.706;2024-01-25T00:44:06;22.67;;;3.60;;
5622;SDS011;2833;50.432;10.706;2024-01-25T00:46:31;19.50;;;4.07;;
5622;SDS011;2833;50.432;10.706;2024-01-25T00:48:57;15.40;;;3.33;;
5622;SDS011;2833;50.432;10.706;2024-01-25T00:51:22;17.13;;;3.37;;
5622;SDS011;2833;50.432;10.706;2024-01-25T00:53:50;8.20;;;2.30;;
5622;SDS011;2833;50.432;10.706;2024-01-25T00:56:16;15.90;;;4.17;;
5622;SDS011;2833;50.432;10.706;2024-01-25T00:58:41;16.20;;;3.13;;
5622;SDS011;2833;50.432;10.706;2024-01-25T01:01:06;16.80;;;3.70;;
5622;SDS011;2833;50.432;10.706;2024-01-25T01:03:32;13.03;;;2.60;;
5622;SDS011;2833;50.432;10.706;2024-01-25T01:05:57;21.77;;;3.77;;
5622;SDS011;2833;50.432;10.706;2024-01-25T01:08:23;10.73;;;2.70;;
5622;SDS011;2833;50.432;10.706;2024-01-25T01:10:48;18.17;;;3.27;;
5622;SDS011;2833;50.432;10.706;2024-01-25T01:13:13;8.43;;;2.57;;
5622;SDS011;2833;50.432;10.706;2024-01-25T01:15:38;7.07;;;2.60;;
5622;SDS011;2833;50.432;10.706;2024-01-25T01:18:03;10.10;;;3.00;;
5622;SDS011;2833;50.432;10.706;2024-01-25T01:20:30;20.43;;;3.30;;
5622;SDS011;2833;50.432;10.706;2024-01-25T01:22:55;12.07;;;3.00;;
5622;SDS011;2833;50.432;10.706;2024-01-25T01:25:20;12.23;;;2.83;;
5622;SDS011;2833;50.432;10.706;2024-01-25T01:27:45;13.57;;;3.10;;
5622;SDS011;2833;50.432;10.706;2024-01-25T01:30:11;16.27;;;3.07;;
5622;SDS011;2833;50.432;10.706;2024-01-25T01:32:36;5.67;;;1.80;;
5622;SDS011;2833;50.432;10.706;2024-01-25T01:35:01;12.97;;;2.50;;
5622;SDS011;2833;50.432;10.706;2024-01-25T01:37:26;11.50;;;2.70;;
5622;SDS011;2833;50.432;10.706;2024-01-25T01:39:52;11.40;;;3.40;;
5622;SDS011;2833;50.432;10.706;2024-01-25T01:42:17;10.60;;;2.50;;
5622;SDS011;2833;50.432;10.706;2024-01-25T01:44:43;21.43;;;4.20;;
5622;SDS011;2833;50.432;10.706;2024-01-25T01:47:08;9.43;;;3.20;;
5622;SDS011;2833;50.432;10.706;2024-01-25T01:49:33;13.90;;;3.00;;
5622;SDS011;2833;50.432;10.706;2024-01-25T01:51:59;13.53;;;3.63;;
5622;SDS011;2833;50.432;10.706;2024-01-25T01:54:24;15.20;;;3.53;;
5622;SDS011;2833;50.432;10.706;2024-01-25T01:56:49;17.43;;;3.60;;
5622;SDS011;2833;50.432;10.706;2024-01-25T01:59:14;15.63;;;3.47;;
5622;SDS011;2833;50.432;10.706;2024-01-25T02:01:40;11.70;;;3.13;;
5622;SDS011;2833;50.432;10.706;2024-01-25T02:04:05;13.20;;;3.63;;
5622;SDS011;2833;50.432;10.706;2024-01-25T02:06:30;16.23;;;4.03;;
5622;SDS011;2833;50.432;10.706;2024-01-25T02:08:55;17.43;;;3.63;;
5622;SDS011;2833;50.432;10.706;2024-01-25T02:11:23;15.00;;;3.30;;
5622;SDS011;2833;50.432;10.706;2024-01-25T02:13:49;20.73;;;3.70;;
5622;SDS011;2833;50.432;10.706;2024-01-25T02:16:14;19.13;;;3.47;;
5622;SDS011;2833;50.432;10.706;2024-01-25T02:18:40;15.47;;;3.40;;
5622;SDS011;2833;50.432;10.706;2024-01-25T02:21:05;28.20;;;4.17;;
5622;SDS011;2833;50.432;10.706;2024-01-25T02:23:31;13.10;;;4.00;;
5622;SDS011;2833;50.432;10.706;2024-01-25T02:25:56;16.10;;;4.73;;
5622;SDS011;2833;50.432;10.706;2024-01-25T02:28:21;25.50;;;4.23;;
5622;SDS011;2833;50.432;10.706;2024-01-25T02:30:46;17.00;;;4.07;;
5622;SDS011;2833;50.432;10.706;2024-01-25T02:33:11;15.13;;;4.20;;
5622;SDS011;2833;50.432;10.706;2024-01-25T02:35:37;14.73;;;3.77;;
5622;SDS011;2833;50.432;10.706;2024-01-25T02:38:02;19.20;;;3.80;;
5622;SDS011;2833;50.432;10.706;2024-01-25T02:40:27;18.23;;;4.17;;
5622;SDS011;2833;50.432;10.706;2024-01-25T02:42:53;20.20;;;4.10;;
5622;SDS011;2833;50.432;10.706;2024-01-25T02:45:18;11.17;;;3.60;;
5622;SDS011;2833;50.432;10.706;2024-01-25T02:47:43;21.47;;;3.60;;
5622;SDS011;2833;50.432;10.706;2024-01-25T02:50:08;12.97;;;3.90;;
5622;SDS011;2833;50.432;10.706;2024-01-25T02:52:34;9.30;;;3.53;;
5622;SDS011;2833;50.432;10.706;2024-01-25T02:54:59;16.37;;;3.80;;
5622;SDS011;2833;50.432;10.706;2024-01-25T02:57:24;16.80;;;4.43;;
5622;SDS011;2833;50.432;10.706;2024-01-25T02:59:50;18.90;;;3.23;;
5622;SDS011;2833;50.432;10.706;2024-01-25T03:02:15;8.07;;;2.60;;
5622;SDS011;2833;50.432;10.706;2024-01-25T03:04:43;9.30;;;2.60;;
5622;SDS011;2833;50.432;10.706;2024-01-25T03:07:08;21.07;;;4.43;;
5622;SDS011;2833;50.432;10.706;2024-01-25T03:09:33;10.70;;;2.80;;
5622;SDS011;2833;50.432;10.706;2024-01-25T03:11:59;14.17;;;3.67;;
5622;SDS011;2833;50.432;10.706;2024-01-25T03:14:24;11.63;;;3.67;;
5622;SDS011;2833;50.432;10.706;2024-01-25T03:16:49;10.20;;;3.43;;
5622;SDS011;2833;50.432;10.706;2024-01-25T03:19:14;12.50;;;4.00;;
5622;SDS011;2833;50.432;10.706;2024-01-25T03:21:39;15.80;;;4.10;;
5622;SDS011;2833;50.432;10.706;2024-01-25T03:24:05;27.33;;;4.83;;
5622;SDS011;2833;50.432;10.706;2024-01-25T03:26:30;20.83;;;4.07;;
5622;SDS011;2833;50.432;10.706;2024-01-25T03:28:55;14.93;;;3.53;;
5622;SDS011;2833;50.432;10.706;2024-01-25T03:31:20;14.20;;;3.50;;
5622;SDS011;2833;50.432;10.706;2024-01-25T03:33:45;11.20;;;3.60;;
5622;SDS011;2833;50.432;10.706;2024-01-25T03:36:13;15.40;;;4.07;;
5622;SDS011;2833;50.432;10.706;2024-01-25T03:38:38;11.13;;;3.40;;
5622;SDS011;2833;50.432;10.706;2024-01-25T03:41:03;21.83;;;4.60;;
5622;SDS011;2833;50.432;10.706;2024-01-25T03:43:29;22.37;;;4.83;;
5622;SDS011;2833;50.432;10.706;2024-01-25T03:45:54;10.90;;;3.60;;
5622;SDS011;2833;50.432;10.706;2024-01-25T03:48:19;23.13;;;4.10;;
5622;SDS011;2833;50.432;10.706;2024-01-25T03:50:44;21.20;;;3.90;;
5622;SDS011;2833;50.432;10.706;2024-01-25T03:53:09;15.33;;;4.40;;
5622;SDS011;2833;50.432;10.706;2024-01-25T03:55:35;23.37;;;4.57;;
5622;SDS011;2833;50.432;10.706;2024-01-25T03:58:00;20.40;;;4.50;;
5622;SDS011;2833;50.432;10.706;2024-01-25T04:00:25;19.07;;;3.80;;
5622;SDS011;2833;50.432;10.706;2024-01-25T04:02:50;13.97;;;3.43;;
5622;SDS011;2833;50.432;10.706;2024-01-25T04:05:16;22.23;;;5.20;;
5622;SDS011;2833;50.432;10.706;2024-01-25T04:07:41;13.70;;;4.13;;
5622;SDS011;2833;50.432;10.706;2024-01-25T04:10:06;23.37;;;4.90;;
5622;SDS011;2833;50.432;10.706;2024-01-25T04:12:31;28.13;;;4.87;;
5622;SDS011;2833;50.432;10.706;2024-01-25T04:14:58;16.83;;;4.27;;
5622;SDS011;2833;50.432;10.706;2024-01-25T04:17:23;12.83;;;3.57;;
5622;SDS011;2833;50.432;10.706;2024-01-25T04:19:48;17.53;;;5.00;;
5622;SDS011;2833;50.432;10.706;2024-01-25T04:22:13;13.77;;;4.17;;
5622;SDS011;2833;50.432;10.706;2024-01-25T04:24:39;15.77;;;4.27;;
5622;SDS011;2833;50.432;10.706;2024-01-25T04:27:04;13.83;;;3.50;;
5622;SDS011;2833;50.432;10.706;2024-01-25T04:29:30;17.20;;;4.00;;
5622;SDS011;2833;50.432;10.706;2024-01-25T04:31:55;23.53;;;4.33;;
5622;SDS011;2833;50.432;10.706;2024-01-25T04:34:20;18.33;;;5.27;;
5622;SDS011;2833;50.432;10.706;2024-01-25T04:36:45;14.90;;;4.60;;
5622;SDS011;2833;50.432;10.706;2024-01-25T04:39:11;25.33;;;5.50;;
5622;SDS011;2833;50.432;10.706;2024-01-25T04:41:36;24.80;;;5.37;;
5622;SDS011;2833;50.432;10.706;2024-01-25T04:44:01;17.07;;;5.17;;
5622;SDS011;2833;50.432;10.706;2024-01-25T04:46:26;17.57;;;4.37;;
5622;SDS011;2833;50.432;10.706;2024-01-25T04:48:52;14.37;;;3.30;;
5622;SDS011;2833;50.432;10.706;2024-01-25T04:51:17;21.47;;;4.93;;
5622;SDS011;2833;50.432;10.706;2024-01-25T04:53:43;4.70;;;2.53;;
5622;SDS011;2833;50.432;10.706;2024-01-25T04:56:08;11.67;;;3.47;;
5622;SDS011;2833;50.432;10.706;2024-01-25T04:58:33;10.97;;;3.70;;
5622;SDS011;2833;50.432;10.706;2024-01-25T05:00:59;22.27;;;4.23;;
5622;SDS011;2833;50.432;10.706;2024-01-25T05:03:24;7.57;;;2.53;;
5622;SDS011;2833;50.432;10.706;2024-01-25T05:05:50;16.27;;;3.30;;
5622;SDS011;2833;50.432;10.706;2024-01-25T05:08:15;13.33;;;4.17;;
5622;SDS011;2833;50.432;10.706;2024-01-25T05:10:40;22.60;;;5.70;;
5622;SDS011;2833;50.432;10.706;2024-01-25T05:13:05;12.63;;;3.63;;
5622;SDS011;2833;50.432;10.706;2024-01-25T05:15:31;17.00;;;3.70;;
5622;SDS011;2833;50.432;10.706;2024-01-25T05:17:56;11.60;;;4.47;;
5622;SDS011;2833;50.432;10.706;2024-01-25T05:20:21;27.50;;;8.27;;
5622;SDS011;2833;50.432;10.706;2024-01-25T05:22:46;19.00;;;7.13;;
5622;SDS011;2833;50.432;10.706;2024-01-25T05:25:12;17.63;;;6.53;;
5622;SDS011;2833;50.432;10.706;2024-01-25T05:27:37;13.80;;;5.10;;
5622;SDS011;2833;50.432;10.706;2024-01-25T05:30:02;26.90;;;6.90;;
5622;SDS011;2833;50.432;10.706;2024-01-25T05:32:28;24.23;;;5.43;;
5622;SDS011;2833;50.432;10.706;2024-01-25T05:34:53;15.53;;;5.30;;
5622;SDS011;2833;50.432;10.706;2024-01-25T05:37:18;30.67;;;6.63;;
5622;SDS011;2833;50.432;10.706;2024-01-25T05:39:43;15.87;;;4.80;;
5622;SDS011;2833;50.432;10.706;2024-01-25T05:42:08;25.03;;;8.77;;
5622;SDS011;2833;50.432;10.706;2024-01-25T05:44:34;19.57;;;6.53;;
5622;SDS011;2833;50.432;10.706;2024-01-25T05:46:59;26.17;;;6.83;;
5622;SDS011;2833;50.432;10.706;2024-01-25T05:49:24;9.70;;;5.03;;
5622;SDS011;2833;50.432;10.706;2024-01-25T05:51:49;18.60;;;6.27;;
5622;SDS011;2833;50.432;10.706;2024-01-25T05:54:14;25.20;;;6.07;;
5622;SDS011;2833;50.432;10.706;2024-01-25T05:56:39;23.00;;;11.27;;
5622;SDS011;2833;50.432;10.706;2024-01-25T05:59:05;28.47;;;8.00;;
5622;SDS011;2833;50.432;10.706;2024-01-25T06:01:30;56.43;;;20.20;;
5622;SDS011;2833;50.432;10.706;2024-01-25T06:03:55;45.03;;;18.47;;
5622;SDS011;2833;50.432;10.706;2024-01-25T06:06:20;46.17;;;18.37;;
5622;SDS011;2833;50.432;10.706;2024-01-25T06:08:45;31.83;;;12.17;;
5622;SDS011;2833;50.432;10.706;2024-01-25T06:11:11;27.07;;;8.57;;
5622;SDS011;2833;50.432;10.706;2024-01-25T06:13:36;14.93;;;5.93;;
5622;SDS011;2833;50.432;10.706;2024-01-25T06:16:01;15.17;;;6.93;;
5622;SDS011;2833;50.432;10.706;2024-01-25T06:18:26;19.13;;;4.67;;
5622;SDS011;2833;50.432;10.706;2024-01-25T06:20:52;34.53;;;11.47;;
5622;SDS011;2833;50.432;10.706;2024-01-25T06:23:17;38.17;;;12.17;;
5622;SDS011;2833;50.432;10.706;2024-01-25T06:25:42;52.13;;;13.83;;
5622;SDS011;2833;50.432;10.706;2024-01-25T06:28:07;61.57;;;15.53;;
5622;SDS011;2833;50.432;10.706;2024-01-25T06:30:33;28.70;;;8.20;;
5622;SDS011;2833;50.432;10.706;2024-01-25T06:32:58;23.83;;;8.73;;
5622;SDS011;2833;50.432;10.706;2024-01-25T06:35:23;40.00;;;9.90;;
5622;SDS011;2833;50.432;10.706;2024-01-25T06:37:48;36.07;;;8.37;;
5622;SDS011;2833;50.432;10.706;2024-01-25T06:40:13;29.50;;;8.03;;
5622;SDS011;2833;50.432;10.706;2024-01-25T06:42:39;48.97;;;12.47;;
5622;SDS011;2833;50.432;10.706;2024-01-25T06:45:04;42.33;;;8.23;;
5622;SDS011;2833;50.432;10.706;2024-01-25T06:47:29;61.80;;;14.30;;
5622;SDS011;2833;50.432;10.706;2024-01-25T06:49:54;46.50;;;12.40;;
5622;SDS011;2833;50.432;10.706;2024-01-25T06:52:19;55.67;;;12.77;;
5622;SDS011;2833;50.432;10.706;2024-01-25T06:54:45;38.57;;;9.67;;
5622;SDS011;2833;50.432;10.706;2024-01-25T06:57:10;36.20;;;7.20;;
5622;SDS011;2833;50.432;10.706;2024-01-25T06:59:35;19.67;;;6.50;;
5622;SDS011;2833;50.432;10.706;2024-01-25T07:02:00;20.23;;;7.20;;
5622;SDS011;2833;50.432;10.706;2024-01-25T07:04:27;26.03;;;8.17;;
5622;SDS011;2833;50.432;10.706;2024-01-25T07:06:53;24.67;;;7.00;;
5622;SDS011;2833;50.432;10.706;2024-01-25T07:09:18;32.53;;;9.50;;
5622;SDS011;2833;50.432;10.706;2024-01-25T07:11:43;36.33;;;9.47;;
5622;SDS011;2833;50.432;10.706;2024-01-25T07:14:08;16.17;;;6.30;;
5622;SDS011;2833;50.432;10.706;2024-01-25T07:16:33;26.73;;;9.03;;
5622;SDS011;2833;50.432;10.706;2024-01-25T07:18:59;16.33;;;5.13;;
5622;SDS011;2833;50.432;10.706;2024-01-25T07:21:24;36.93;;;9.67;;
5622;SDS011;2833;50.432;10.706;2024-01-25T07:23:49;107.30;;;29.00;;
5622;SDS011;2833;50.432;10.706;2024-01-25T07:26:20;20.53;;;6.90;;
5622;SDS011;2833;50.432;10.706;2024-01-25T07:28:46;38.23;;;15.93;;
5622;SDS011;2833;50.432;10.706;2024-01-25T07:31:12;24.50;;;9.23;;
5622;SDS011;2833;50.432;10.706;2024-01-25T07:33:37;17.07;;;5.73;;
5622;SDS011;2833;50.432;10.706;2024-01-25T07:36:02;43.63;;;11.70;;
5622;SDS011;2833;50.432;10.706;2024-01-25T07:38:28;55.93;;;17.00;;
5622;SDS011;2833;50.432;10.706;2024-01-25T07:40:53;36.23;;;14.20;;
5622;SDS011;2833;50.432;10.706;2024-01-25T07:43:18;29.07;;;9.67;;
5622;SDS011;2833;50.432;10.706;2024-01-25T07:45:43;23.73;;;8.60;;
5622;SDS011;2833;50.432;10.706;2024-01-25T07:48:09;30.97;;;9.93;;
5622;SDS011;2833;50.432;10.706;2024-01-25T07:50:34;47.07;;;13.40;;
5622;SDS011;2833;50.432;10.706;2024-01-25T07:52:59;38.10;;;10.07;;
5622;SDS011;2833;50.432;10.706;2024-01-25T07:55:26;35.47;;;12.97;;
5622;SDS011;2833;50.432;10.706;2024-01-25T07:57:51;41.97;;;13.03;;
5622;SDS011;2833;50.432;10.706;2024-01-25T08:00:16;32.60;;;8.80;;
5622;SDS011;2833;50.432;10.706;2024-01-25T08:02:41;27.80;;;8.77;;
5622;SDS011;2833;50.432;10.706;2024-01-25T08:05:08;16.83;;;8.30;;
5622;SDS011;2833;50.432;10.706;2024-01-25T08:07:33;25.27;;;7.83;;
5622;SDS011;2833;50.432;10.706;2024-01-25T08:09:58;18.17;;;6.70;;
5622;SDS011;2833;50.432;10.706;2024-01-25T08:12:24;24.00;;;7.20;;
5622;SDS011;2833;50.432;10.706;2024-01-25T08:14:49;22.90;;;6.70;;
5622;SDS011;2833;50.432;10.706;2024-01-25T08:17:15;19.83;;;6.33;;
5622;SDS011;2833;50.432;10.706;2024-01-25T08:19:40;63.13;;;19.97;;
5622;SDS011;2833;50.432;10.706;2024-01-25T08:22:05;12.63;;;5.47;;
5622;SDS011;2833;50.432;10.706;2024-01-25T08:24:31;24.53;;;9.23;;
5622;SDS011;2833;50.432;10.706;2024-01-25T08:26:56;39.27;;;14.40;;
5622;SDS011;2833;50.432;10.706;2024-01-25T08:29:21;26.93;;;10.20;;
5622;SDS011;2833;50.432;10.706;2024-01-25T08:31:46;14.50;;;4.70;;
5622;SDS011;2833;50.432;10.706;2024-01-25T08:34:13;14.53;;;4.57;;
5622;SDS011;2833;50.432;10.706;2024-01-25T08:36:38;13.27;;;6.07;;
5622;SDS011;2833;50.432;10.706;2024-01-25T08:39:03;18.50;;;4.87;;
5622;SDS011;2833;50.432;10.706;2024-01-25T08:41:29;15.70;;;4.60;;
5622;SDS011;2833;50.432;10.706;2024-01-25T08:43:55;18.50;;;4.97;;
5622;SDS011;2833;50.432;10.706;2024-01-25T08:46:20;15.73;;;4.77;;
5622;SDS011;2833;50.432;10.706;2024-01-25T08:48:45;13.97;;;4.23;;
5622;SDS011;2833;50.432;10.706;2024-01-25T08:51:10;23.73;;;4.60;;
5622;SDS011;2833;50.432;10.706;2024-01-25T08:53:35;11.43;;;3.60;;
5622;SDS011;2833;50.432;10.706;2024-01-25T08:56:01;21.37;;;4.60;;
5622;SDS011;2833;50.432;10.706;2024-01-25T08:58:26;19.80;;;4.47;;
5622;SDS011;2833;50.432;10.706;2024-01-25T09:00:51;23.37;;;5.60;;
5622;SDS011;2833;50.432;10.706;2024-01-25T09:03:16;6.20;;;2.97;;
5622;SDS011;2833;50.432;10.706;2024-01-25T09:05:42;8.93;;;3.63;;
5622;SDS011;2833;50.432;10.706;2024-01-25T09:08:11;12.07;;;4.23;;
5622;SDS011;2833;50.432;10.706;2024-01-25T09:10:36;16.33;;;4.27;;
5622;SDS011;2833;50.432;10.706;2024-01-25T09:13:01;12.33;;;4.27;;
5622;SDS011;2833;50.432;10.706;2024-01-25T09:15:26;13.80;;;5.17;;
5622;SDS011;2833;50.432;10.706;2024-01-25T09:17:52;18.23;;;5.00;;
5622;SDS011;2833;50.432;10.706;2024-01-25T09:20:17;22.47;;;4.50;;
5622;SDS011;2833;50.432;10.706;2024-01-25T09:22:43;15.87;;;3.73;;
5622;SDS011;2833;50.432;10.706;2024-01-25T09:25:09;22.73;;;5.77;;
5622;SDS011;2833;50.432;10.706;2024-01-25T09:27:34;10.97;;;4.13;;
5622;SDS011;2833;50.432;10.706;2024-01-25T09:29:59;17.03;;;5.63;;
5622;SDS011;2833;50.432;10.706;2024-01-25T09:32:24;14.27;;;4.20;;
5622;SDS011;2833;50.432;10.706;2024-01-25T09:34:49;12.80;;;4.67;;
5622;SDS011;2833;50.432;10.706;2024-01-25T09:37:14;20.83;;;4.87;;
5622;SDS011;2833;50.432;10.706;2024-01-25T09:39:40;11.73;;;4.00;;
5622;SDS011;2833;50.432;10.706;2024-01-25T09:42:05;15.20;;;4.10;;
5622;SDS011;2833;50.432;10.706;2024-01-25T09:44:30;11.23;;;3.20;;
5622;SDS011;2833;50.432;10.706;2024-01-25T09:46:56;14.33;;;4.33;;
5622;SDS011;2833;50.432;10.706;2024-01-25T09:49:22;13.60;;;3.10;;
5622;SDS011;2833;50.432;10.706;2024-01-25T09:51:48;13.37;;;5.33;;
5622;SDS011;2833;50.432;10.706;2024-01-25T09:54:15;11.97;;;3.90;;
5622;SDS011;2833;50.432;10.706;2024-01-25T09:56:41;12.30;;;3.93;;
5622;SDS011;2833;50.432;10.706;2024-01-25T09:59:07;20.63;;;4.17;;
5622;SDS011;2833;50.432;10.706;2024-01-25T10:01:33;10.30;;;3.50;;
5622;SDS011;2833;50.432;10.706;2024-01-25T10:03:59;14.07;;;4.13;;
5622;SDS011;2833;50.432;10.706;2024-01-25T10:06:25;6.23;;;2.60;;
5622;SDS011;2833;50.432;10.706;2024-01-25T10:08:50;11.50;;;4.10;;
5622;SDS011;2833;50.432;10.706;2024-01-25T10:11:16;8.60;;;2.67;;
5622;SDS011;2833;50.432;10.706;2024-01-25T10:13:45;11.67;;;3.73;;
5622;SDS011;2833;50.432;10.706;2024-01-25T10:16:14;9.83;;;3.47;;
5622;SDS011;2833;50.432;10.706;2024-01-25T10:18:40;15.90;;;3.93;;
5622;SDS011;2833;50.432;10.706;2024-01-25T10:21:06;14.60;;;3.43;;
5622;SDS011;2833;50.432;10.706;2024-01-25T10:23:31;10.40;;;3.63;;
5622;SDS011;2833;50.432;10.706;2024-01-25T10:25:56;11.70;;;3.90;;
5622;SDS011;2833;50.432;10.706;2024-01-25T10:28:23;11.33;;;3.50;;
5622;SDS011;2833;50.432;10.706;2024-01-25T10:30:48;13.87;;;2.90;;
5622;SDS011;2833;50.432;10.706;2024-01-25T10:33:13;6.80;;;3.37;;
5622;SDS011;2833;50.432;10.706;2024-01-25T10:35:39;19.83;;;3.60;;
5622;SDS011;2833;50.432;10.706;2024-01-25T10:38:06;9.10;;;3.70;;
5622;SDS011;2833;50.432;10.706;2024-01-25T10:40:31;11.83;;;3.00;;
5622;SDS011;2833;50.432;10.706;2024-01-25T10:42:56;10.80;;;2.93;;
5622;SDS011;2833;50.432;10.706;2024-01-25T10:45:22;9.90;;;2.90;;
5622;SDS011;2833;50.432;10.706;2024-01-25T10:47:48;15.10;;;3.10;;
5622;SDS011;2833;50.432;10.706;2024-01-25T10:50:13;10.00;;;3.27;;
5622;SDS011;2833;50.432;10.706;2024-01-25T10:52:39;11.70;;;3.20;;
5622;SDS011;2833;50.432;10.706;2024-01-25T10:55:05;13.63;;;4.40;;
5622;SDS011;2833;50.432;10.706;2024-01-25T11:00:02;12.30;;;2.87;;
5622;SDS011;2833;50.432;10.706;2024-01-25T11:02:30;7.00;;;2.80;;
5622;SDS011;2833;50.432;10.706;2024-01-25T11:04:55;16.20;;;3.50;;
5622;SDS011;2833;50.432;10.706;2024-01-25T11:07:20;8.73;;;3.53;;
5622;SDS011;2833;50.432;10.706;2024-01-25T11:09:46;13.20;;;4.83;;
5622;SDS011;2833;50.432;10.706;2024-01-25T11:12:13;28.03;;;8.97;;
5622;SDS011;2833;50.432;10.706;2024-01-25T11:14:39;20.20;;;5.20;;
5622;SDS011;2833;50.432;10.706;2024-01-25T11:17:22;3.83;;;2.10;;
5622;SDS011;2833;50.432;10.706;2024-01-25T11:19:50;10.30;;;3.87;;
5622;SDS011;2833;50.432;10.706;2024-01-25T11:22:16;15.47;;;3.80;;
5622;SDS011;2833;50.432;10.706;2024-01-25T11:24:41;11.07;;;4.07;;
5622;SDS011;2833;50.432;10.706;2024-01-25T11:27:07;31.37;;;13.83;;
5622;SDS011;2833;50.432;10.706;2024-01-25T11:29:33;33.43;;;13.70;;
5622;SDS011;2833;50.432;10.706;2024-01-25T11:31:58;18.00;;;8.23;;
5622;SDS011;2833;50.432;10.706;2024-01-25T11:34:24;17.57;;;6.80;;
5622;SDS011;2833;50.432;10.706;2024-01-25T11:36:49;17.37;;;9.57;;
5622;SDS011;2833;50.432;10.706;2024-01-25T11:39:15;22.70;;;9.53;;
5622;SDS011;2833;50.432;10.706;2024-01-25T11:41:44;8.83;;;4.23;;
5622;SDS011;2833;50.432;10.706;2024-01-25T11:44:09;15.30;;;6.67;;
5622;SDS011;2833;50.432;10.706;2024-01-25T11:46:35;10.33;;;3.30;;
5622;SDS011;2833;50.432;10.706;2024-01-25T11:49:00;9.70;;;3.80;;
5622;SDS011;2833;50.432;10.706;2024-01-25T11:51:26;21.20;;;8.80;;
5622;SDS011;2833;50.432;10.706;2024-01-25T11:53:52;23.27;;;10.83;;
5622;SDS011;2833;50.432;10.706;2024-01-25T11:56:24;43.80;;;18.07;;
5622;SDS011;2833;50.432;10.706;2024-01-25T11:58:50;26.43;;;11.07;;
5622;SDS011;2833;50.432;10.706;2024-01-25T12:01:15;13.70;;;4.17;;
5622;SDS011;2833;50.432;10.706;2024-01-25T12:03:41;17.30;;;6.33;;
5622;SDS011;2833;50.432;10.706;2024-01-25T12:06:06;16.97;;;6.00;;
5622;SDS011;2833;50.432;10.706;2024-01-25T12:08:34;19.47;;;8.93;;
5622;SDS011;2833;50.432;10.706;2024-01-25T12:11:06;24.03;;;11.67;;
5622;SDS011;2833;50.432;10.706;2024-01-25T12:13:34;18.67;;;7.60;;
5622;SDS011;2833;50.432;10.706;2024-01-25T12:16:00;29.90;;;11.00;;
5622;SDS011;2833;50.432;10.706;2024-01-25T12:18:26;25.33;;;10.33;;
5622;SDS011;2833;50.432;10.706;2024-01-25T12:20:51;19.20;;;6.80;;
5622;SDS011;2833;50.432;10.706;2024-01-25T12:23:16;124.27;;;37.37;;
5622;SDS011;2833;50.432;10.706;2024-01-25T12:25:41;43.70;;;15.70;;
5622;SDS011;2833;50.432;10.706;2024-01-25T12:28:06;36.27;;;11.00;;
5622;SDS011;2833;50.432;10.706;2024-01-25T12:30:32;28.90;;;8.23;;
5622;SDS011;2833;50.432;10.706;2024-01-25T12:32:57;13.40;;;4.97;;
5622;SDS011;2833;50.432;10.706;2024-01-25T12:35:22;12.30;;;3.93;;
5622;SDS011;2833;50.432;10.706;2024-01-25T12:37:47;11.43;;;3.13;;
5622;SDS011;2833;50.432;10.706;2024-01-25T12:40:12;11.73;;;3.37;;
5622;SDS011;2833;50.432;10.706;2024-01-25T12:42:38;8.00;;;3.60;;
5622;SDS011;2833;50.432;10.706;2024-01-25T12:45:03;6.23;;;2.97;;
5622;SDS011;2833;50.432;10.706;2024-01-25T12:47:28;21.50;;;7.13;;
5622;SDS011;2833;50.432;10.706;2024-01-25T12:49:54;9.77;;;4.33;;
5622;SDS011;2833;50.432;10.706;2024-01-25T12:52:19;10.37;;;4.80;;
5622;SDS011;2833;50.432;10.706;2024-01-25T12:54:44;15.33;;;4.80;;
5622;SDS011;2833;50.432;10.706;2024-01-25T12:57:09;20.90;;;7.80;;
5622;SDS011;2833;50.432;10.706;2024-01-25T12:59:35;33.90;;;10.87;;
5622;SDS011;2833;50.432;10.706;2024-01-25T13:02:01;18.90;;;6.10;;
5622;SDS011;2833;50.432;10.706;2024-01-25T13:04:26;26.37;;;9.33;;
5622;SDS011;2833;50.432;10.706;2024-01-25T13:06:52;12.10;;;5.20;;
5622;SDS011;2833;50.432;10.706;2024-01-25T13:09:17;11.50;;;4.00;;
5622;SDS011;2833;50.432;10.706;2024-01-25T13:11:43;9.77;;;3.27;;
5622;SDS011;2833;50.432;10.706;2024-01-25T13:14:08;7.30;;;2.90;;
5622;SDS011;2833;50.432;10.706;2024-01-25T13:16:33;8.03;;;2.50;;
5622;SDS011;2833;50.432;10.706;2024-01-25T13:18:59;12.10;;;2.93;;
5622;SDS011;2833;50.432;10.706;2024-01-25T13:21:24;7.83;;;3.27;;
5622;SDS011;2833;50.432;10.706;2024-01-25T13:23:50;14.23;;;3.93;;
5622;SDS011;2833;50.432;10.706;2024-01-25T13:26:15;13.40;;;3.37;;
5622;SDS011;2833;50.432;10.706;2024-01-25T13:28:40;5.73;;;2.50;;
5622;SDS011;2833;50.432;10.706;2024-01-25T13:31:05;6.10;;;2.87;;
5622;SDS011;2833;50.432;10.706;2024-01-25T13:33:30;6.90;;;2.63;;
5622;SDS011;2833;50.432;10.706;2024-01-25T13:35:56;12.37;;;3.20;;
5622;SDS011;2833;50.432;10.706;2024-01-25T13:38:21;14.33;;;2.60;;
5622;SDS011;2833;50.432;10.706;2024-01-25T13:40:46;8.37;;;3.07;;
5622;SDS011;2833;50.432;10.706;2024-01-25T13:43:11;13.93;;;2.80;;
5622;SDS011;2833;50.432;10.706;2024-01-25T13:45:36;7.70;;;2.60;;
5622;SDS011;2833;50.432;10.706;2024-01-25T13:48:02;8.60;;;2.67;;
5622;SDS011;2833;50.432;10.706;2024-01-25T13:50:27;17.57;;;3.10;;
5622;SDS011;2833;50.432;10.706;2024-01-25T13:52:52;9.27;;;2.73;;
5622;SDS011;2833;50.432;10.706;2024-01-25T13:55:17;8.10;;;2.93;;
5622;SDS011;2833;50.432;10.706;2024-01-25T13:57:43;8.60;;;3.27;;
5622;SDS011;2833;50.432;10.706;2024-01-25T14:00:08;10.00;;;2.90;;
5622;SDS011;2833;50.432;10.706;2024-01-25T14:02:33;7.30;;;2.53;;
5622;SDS011;2833;50.432;10.706;2024-01-25T14:04:59;10.17;;;2.93;;
5622;SDS011;2833;50.432;10.706;2024-01-25T14:07:24;16.53;;;3.27;;
5622;SDS011;2833;50.432;10.706;2024-01-25T14:09:49;6.83;;;2.27;;
5622;SDS011;2833;50.432;10.706;2024-01-25T14:12:15;9.67;;;2.70;;
5622;SDS011;2833;50.432;10.706;2024-01-25T14:14:41;11.30;;;3.37;;
5622;SDS011;2833;50.432;10.706;2024-01-25T14:17:06;9.33;;;3.10;;
5622;SDS011;2833;50.432;10.706;2024-01-25T14:19:31;25.83;;;12.63;;
5622;SDS011;2833;50.432;10.706;2024-01-25T14:21:56;79.90;;;24.27;;
5622;SDS011;2833;50.432;10.706;2024-01-25T14:24:21;43.17;;;16.83;;
5622;SDS011;2833;50.432;10.706;2024-01-25T14:26:47;24.57;;;8.97;;
5622;SDS011;2833;50.432;10.706;2024-01-25T14:29:12;8.50;;;4.53;;
5622;SDS011;2833;50.432;10.706;2024-01-25T14:31:38;9.00;;;3.53;;
5622;SDS011;2833;50.432;10.706;2024-01-25T14:34:03;13.77;;;5.30;;
5622;SDS011;2833;50.432;10.706;2024-01-25T14:36:29;15.37;;;7.00;;
5622;SDS011;2833;50.432;10.706;2024-01-25T14:38:55;10.77;;;4.47;;